createdAt,value
2018-07-17T00:00:04.201Z,53.47
2018-07-17T00:02:35.014Z,52.65
2018-07-17T00:05:06.466Z,52.87
2018-07-17T00:07:37.357Z,53.25
2018-07-17T00:10:08.498Z,52.64
2018-07-17T00:12:39.226Z,53.16
2018-07-17T00:15:09.856Z,53.52
2018-07-17T00:17:40.224Z,54.08
2018-07-17T00:20:10.785Z,54.29
2018-07-17T00:22:41.678Z,55.35
2018-07-17T00:25:12.270Z,56.04
2018-07-17T00:27:43.109Z,55.51
2018-07-17T00:30:13.751Z,55.42
2018-07-17T00:32:44.540Z,55.85
2018-07-17T00:35:15.173Z,55.72
2018-07-17T00:37:45.969Z,54.82
2018-07-17T00:40:16.806Z,55.42
2018-07-17T00:42:47.554Z,55.56
2018-07-17T00:45:18.204Z,57.58
2018-07-17T00:47:48.885Z,57.62
2018-07-17T00:50:19.618Z,57.01
2018-07-17T00:52:50.485Z,56.19
2018-07-17T00:55:21.145Z,56.30
2018-07-17T00:57:51.661Z,56.42
2018-07-17T01:00:26.273Z,56.09
2018-07-17T01:03:01.677Z,55.67
2018-07-17T01:05:38.749Z,55.27
2018-07-17T01:08:14.220Z,54.74
2018-07-17T01:10:49.823Z,55.73
2018-07-17T01:13:23.985Z,55.93
2018-07-17T01:15:54.745Z,57.16
2018-07-17T01:18:25.583Z,56.98
2018-07-17T01:20:56.110Z,59.38
2018-07-17T01:23:26.925Z,58.71
2018-07-17T01:25:57.783Z,59.26
2018-07-17T01:28:28.625Z,59.64
2018-07-17T01:30:59.345Z,59.68
2018-07-17T01:33:30.190Z,60.16
2018-07-17T01:36:00.713Z,59.20
2018-07-17T01:38:31.518Z,58.19
2018-07-17T01:41:02.182Z,58.85
2018-07-17T01:43:34.078Z,58.88
2018-07-17T01:46:04.695Z,59.34
2018-07-17T01:48:35.285Z,58.68
2018-07-17T01:51:05.867Z,58.12
2018-07-17T01:53:36.548Z,57.82
2018-07-17T01:56:07.350Z,57.44
2018-07-17T01:58:38.021Z,57.19
2018-07-17T02:01:08.826Z,57.49
2018-07-17T02:03:39.453Z,57.11
2018-07-17T02:06:10.186Z,56.85
2018-07-17T02:08:41.123Z,56.95
2018-07-17T02:11:11.793Z,56.97
2018-07-17T02:13:42.513Z,57.54
2018-07-17T02:16:13.093Z,57.60
2018-07-17T02:18:43.713Z,58.91
2018-07-17T02:21:14.486Z,60.10
2018-07-17T02:23:45.578Z,60.26
2018-07-17T02:26:16.208Z,59.94
2018-07-17T02:28:46.877Z,60.52
2018-07-17T02:31:17.514Z,59.52
2018-07-17T02:33:48.461Z,59.61
2018-07-17T02:36:19.148Z,59.20
2018-07-17T02:38:50.247Z,58.91
2018-07-17T02:41:20.843Z,59.67
2018-07-17T02:43:51.874Z,59.06
2018-07-17T02:46:22.605Z,58.64
2018-07-17T02:48:53.373Z,58.83
2018-07-17T02:51:24.050Z,58.73
2018-07-17T02:53:54.779Z,59.50
2018-07-17T02:56:25.415Z,58.84
2018-07-17T02:58:56.098Z,58.77
2018-07-17T03:01:26.284Z,58.54
2018-07-17T03:03:57.158Z,59.18
2018-07-17T03:06:27.841Z,58.96
2018-07-17T03:08:58.967Z,59.57
2018-07-17T03:11:29.669Z,58.62
2018-07-17T03:14:00.213Z,58.37
2018-07-17T03:16:30.930Z,58.18
2018-07-17T03:19:01.982Z,59.11
2018-07-17T03:21:32.703Z,58.87
2018-07-17T03:24:03.558Z,58.04
2018-07-17T03:26:34.264Z,58.08
2018-07-17T03:29:05.012Z,57.34
2018-07-17T03:31:35.751Z,57.73
2018-07-17T03:34:06.547Z,57.43
2018-07-17T03:36:37.273Z,57.57
2018-07-17T03:39:09.225Z,57.43
2018-07-17T03:41:39.895Z,57.15
2018-07-17T03:44:10.356Z,59.53
2018-07-17T03:46:40.974Z,60.54
2018-07-17T03:49:11.734Z,59.38
2018-07-17T03:51:42.310Z,59.50
2018-07-17T03:54:13.084Z,59.52
2018-07-17T03:56:43.821Z,57.88
2018-07-17T03:59:14.567Z,58.09
2018-07-17T04:01:45.197Z,57.56
2018-07-17T04:04:16.253Z,57.85
2018-07-17T04:06:46.809Z,57.24
2018-07-17T04:09:17.526Z,55.95
2018-07-17T04:11:48.237Z,56.21
2018-07-17T04:14:18.914Z,55.79
2018-07-17T04:16:53.652Z,54.73
2018-07-17T04:19:25.720Z,55.12
2018-07-17T04:21:56.401Z,54.41
2018-07-17T04:24:27.230Z,54.80
2018-07-17T04:26:57.930Z,53.87
2018-07-17T04:29:28.869Z,53.63
2018-07-17T04:31:59.499Z,53.35
2018-07-17T04:34:30.046Z,51.91
2018-07-17T04:37:00.852Z,50.32
2018-07-17T04:39:31.590Z,50.94
2018-07-17T04:42:02.282Z,50.11
2018-07-17T04:44:33.160Z,47.48
2018-07-17T04:47:03.837Z,48.30
2018-07-17T04:49:34.261Z,49.76
2018-07-17T04:52:05.106Z,49.00
2018-07-17T04:54:36.189Z,51.98
2018-07-17T04:57:06.969Z,50.86
2018-07-17T04:59:37.765Z,50.97
2018-07-17T05:02:08.602Z,49.72
2018-07-17T05:04:39.280Z,48.13
2018-07-17T05:07:09.970Z,47.07
2018-07-17T05:09:40.931Z,46.25
2018-07-17T05:12:11.699Z,45.36
2018-07-17T05:14:42.610Z,44.65
2018-07-17T05:17:13.206Z,44.93
2018-07-17T05:19:43.953Z,44.54
2018-07-17T05:22:14.690Z,45.23
2018-07-17T05:24:45.793Z,44.85
2018-07-17T05:27:16.493Z,43.24
2018-07-17T05:29:47.161Z,43.45
2018-07-17T05:32:17.804Z,40.32
2018-07-17T05:34:48.577Z,40.41
2018-07-17T05:37:19.403Z,38.41
2018-07-17T05:39:50.141Z,37.50
2018-07-17T05:42:20.849Z,37.37
2018-07-17T05:44:51.794Z,37.80
2018-07-17T05:47:22.602Z,36.82
2018-07-17T05:49:53.666Z,36.83
2018-07-17T05:52:24.295Z,38.00
2018-07-17T05:54:54.974Z,35.97
2018-07-17T05:57:25.726Z,35.60
2018-07-17T05:59:56.531Z,38.88
2018-07-17T06:02:27.373Z,39.71
2018-07-17T06:04:59.305Z,37.57
2018-07-17T06:07:30.232Z,37.86
2018-07-17T06:10:01.045Z,36.62
2018-07-17T06:12:31.865Z,36.82
2018-07-17T06:15:03.745Z,36.40
2018-07-17T06:17:34.502Z,37.52
2018-07-17T06:20:05.592Z,36.58
2018-07-17T06:22:36.393Z,36.90
2018-07-17T06:25:08.072Z,37.19
2018-07-17T06:27:38.741Z,37.38
2018-07-17T06:30:10.845Z,37.05
2018-07-17T06:32:41.628Z,37.16
2018-07-17T06:35:12.649Z,37.15
2018-07-17T06:37:43.462Z,36.30
2018-07-17T06:40:14.317Z,38.35
2018-07-17T06:42:45.049Z,34.04
2018-07-17T06:45:15.745Z,36.45
2018-07-17T06:47:46.518Z,37.58
2018-07-17T06:50:18.182Z,35.23
2018-07-17T06:52:48.749Z,34.84
2018-07-17T06:55:19.466Z,34.67
2018-07-17T06:57:50.157Z,34.95
2018-07-17T07:00:20.993Z,35.49
2018-07-17T07:02:51.661Z,31.50
2018-07-17T07:05:22.480Z,32.29
2018-07-17T07:07:53.210Z,31.51
2018-07-17T07:10:24.090Z,34.03
2018-07-17T07:12:55.007Z,32.82
2018-07-17T07:15:25.793Z,33.49
2018-07-17T07:17:56.462Z,31.54
2018-07-17T07:20:27.349Z,32.78
2018-07-17T07:22:58.062Z,32.19
2018-07-17T07:25:28.848Z,31.23
2018-07-17T07:27:59.462Z,33.43
2018-07-17T07:30:30.390Z,31.31
2018-07-17T07:33:01.117Z,34.41
2018-07-17T07:35:31.852Z,31.59
2018-07-17T07:38:02.833Z,31.70
2018-07-17T07:40:33.537Z,31.27
2018-07-17T07:43:04.236Z,32.03
2018-07-17T07:45:35.032Z,31.07
2018-07-17T07:48:05.580Z,31.20
2018-07-17T07:50:36.497Z,29.56
2018-07-17T07:53:07.437Z,29.31
2018-07-17T07:55:38.389Z,29.49
2018-07-17T07:58:09.222Z,28.76
2018-07-17T08:00:39.895Z,27.99
2018-07-17T08:03:10.508Z,29.71
2018-07-17T08:05:41.480Z,27.75
2018-07-17T08:08:12.128Z,26.96
2018-07-17T08:10:43.161Z,28.23
2018-07-17T08:13:13.813Z,26.64
2018-07-17T08:15:44.480Z,26.60
2018-07-17T08:18:15.200Z,26.17
2018-07-17T08:20:45.985Z,25.61
2018-07-17T08:23:16.592Z,27.07
2018-07-17T08:25:47.245Z,26.51
2018-07-17T08:28:17.775Z,28.15
2018-07-17T08:30:48.440Z,27.70
2018-07-17T08:33:20.224Z,27.44
2018-07-17T08:35:51.018Z,28.09
2018-07-17T08:38:21.905Z,27.58
2018-07-17T08:40:53.939Z,27.04
2018-07-17T08:43:24.842Z,30.77
2018-07-17T08:45:55.586Z,27.21
2018-07-17T08:48:26.101Z,29.64
2018-07-17T08:50:56.806Z,31.12
2018-07-17T08:53:27.401Z,29.23
2018-07-17T08:55:59.385Z,30.27
2018-07-17T08:58:30.025Z,30.35
2018-07-17T09:01:00.725Z,31.61
2018-07-17T09:03:31.556Z,31.21
2018-07-17T09:06:02.356Z,29.92
2018-07-17T09:08:33.073Z,32.60
2018-07-17T09:11:04.206Z,31.23
2018-07-17T09:13:34.868Z,32.98
2018-07-17T09:16:05.731Z,32.98
2018-07-17T09:18:37.105Z,33.55
2018-07-17T09:21:08.473Z,32.90
2018-07-17T09:23:39.264Z,32.56
2018-07-17T09:26:10.036Z,32.55
2018-07-17T09:28:40.789Z,33.79
2018-07-17T09:31:11.661Z,34.76
2018-07-17T09:33:42.347Z,35.91
2018-07-17T09:36:13.209Z,35.24
2018-07-17T09:38:43.922Z,36.34
2018-07-17T09:41:14.958Z,36.67
2018-07-17T09:43:45.609Z,49.06
2018-07-17T09:46:16.277Z,52.34
2018-07-17T09:48:46.961Z,58.34
2018-07-17T09:51:17.084Z,60.78
2018-07-17T09:53:47.585Z,62.45
2018-07-17T09:56:18.197Z,63.26
2018-07-17T09:58:48.821Z,64.90
2018-07-17T10:01:26.725Z,66.95
2018-07-17T10:03:57.753Z,67.86
2018-07-17T10:06:28.367Z,67.07
2018-07-17T10:08:59.119Z,67.73
2018-07-17T10:11:29.882Z,67.82
2018-07-17T10:14:00.489Z,67.56
2018-07-17T10:16:31.685Z,65.93
2018-07-17T10:19:02.268Z,65.25
2018-07-17T10:21:32.881Z,66.39
2018-07-17T10:24:03.509Z,64.99
2018-07-17T10:26:34.390Z,65.16
2018-07-17T10:29:04.944Z,64.98
2018-07-17T10:31:35.597Z,66.78
2018-07-17T10:34:06.321Z,65.13
2018-07-17T10:36:36.961Z,64.88
2018-07-17T10:39:10.087Z,64.94
2018-07-17T10:41:40.818Z,65.36
2018-07-17T10:44:11.538Z,64.90
2018-07-17T10:46:42.396Z,65.19
2018-07-17T10:49:13.104Z,64.83
2018-07-17T10:51:43.920Z,64.43
2018-07-17T10:54:14.581Z,65.07
2018-07-17T10:56:45.614Z,64.55
2018-07-17T10:59:16.249Z,65.94
2018-07-17T11:01:47.093Z,63.41
2018-07-17T11:04:17.873Z,65.99
2018-07-17T11:06:48.639Z,63.45
2018-07-17T11:09:19.170Z,62.37
2018-07-17T11:11:49.998Z,63.43
2018-07-17T11:14:20.512Z,63.87
2018-07-17T11:16:52.037Z,61.79
2018-07-17T11:19:22.886Z,62.05
2018-07-17T11:21:53.686Z,61.29
2018-07-17T11:24:24.234Z,60.76
2018-07-17T11:26:54.917Z,60.82
2018-07-17T11:29:25.493Z,60.05
2018-07-17T11:31:57.329Z,60.18
2018-07-17T11:34:28.028Z,60.59
2018-07-17T11:36:58.730Z,58.31
2018-07-17T11:39:29.386Z,59.40
2018-07-17T11:41:59.973Z,53.57
2018-07-17T11:44:30.752Z,53.82
2018-07-17T11:47:01.468Z,54.89
2018-07-17T11:49:32.009Z,50.90
2018-07-17T11:52:02.860Z,52.45
2018-07-17T11:54:33.525Z,54.31
2018-07-17T11:57:04.345Z,49.33
2018-07-17T11:59:34.939Z,50.21
2018-07-17T12:02:05.866Z,49.54
2018-07-17T12:04:36.331Z,49.75
2018-07-17T12:07:07.153Z,48.33
2018-07-17T12:09:37.745Z,47.81
2018-07-17T12:12:08.644Z,48.50
2018-07-17T12:14:39.209Z,48.36
2018-07-17T12:17:10.042Z,49.32
2018-07-17T12:19:40.615Z,47.18
2018-07-17T12:22:11.317Z,49.46
2018-07-17T12:24:42.041Z,47.34
2018-07-17T12:27:12.845Z,44.87
2018-07-17T12:29:43.622Z,42.55
2018-07-17T12:32:14.552Z,42.76
2018-07-17T12:34:44.893Z,41.63
2018-07-17T12:37:15.807Z,41.12
2018-07-17T12:39:45.871Z,42.65
2018-07-17T12:42:17.132Z,42.75
2018-07-17T12:44:47.561Z,46.24
2018-07-17T12:47:17.990Z,44.40
2018-07-17T12:49:48.285Z,46.59
2018-07-17T12:52:18.711Z,46.02
2018-07-17T12:54:49.057Z,45.45
2018-07-17T12:57:20.084Z,47.35
2018-07-17T12:59:50.434Z,47.58
2018-07-17T13:02:20.782Z,46.55
2018-07-17T13:04:51.004Z,45.45
2018-07-17T13:07:21.790Z,46.20
2018-07-17T13:09:52.344Z,46.07
2018-07-17T13:12:22.937Z,46.41
2018-07-17T13:14:53.965Z,46.72
2018-07-17T13:17:24.436Z,47.19
2018-07-17T13:19:55.327Z,46.65
2018-07-17T13:22:26.109Z,45.96
2018-07-17T13:24:57.039Z,45.12
2018-07-17T13:27:27.678Z,44.49
2018-07-17T13:29:58.054Z,43.45
2018-07-17T13:32:28.396Z,42.40
2018-07-17T13:34:59.189Z,42.76
2018-07-17T13:37:29.237Z,43.14
2018-07-17T13:39:59.678Z,47.14
2018-07-17T13:42:30.026Z,44.07
2018-07-17T13:45:00.432Z,44.09
2018-07-17T13:47:30.746Z,43.42
2018-07-17T13:50:01.489Z,42.27
2018-07-17T13:52:32.072Z,45.46
2018-07-17T13:55:02.706Z,44.76
2018-07-17T13:57:33.032Z,42.91
2018-07-17T14:00:04.147Z,42.36
2018-07-17T14:02:34.449Z,41.57
2018-07-17T14:05:05.229Z,39.93
2018-07-17T14:07:35.521Z,42.70
2018-07-17T14:10:06.108Z,42.35
2018-07-17T14:12:36.349Z,41.38
2018-07-17T14:15:07.072Z,41.04
2018-07-17T14:17:37.415Z,40.12
2018-07-17T14:20:08.137Z,39.50
2018-07-17T14:22:39.003Z,39.01
2018-07-17T14:25:09.486Z,36.73
2018-07-17T14:27:39.858Z,36.27
2018-07-17T14:30:10.232Z,34.94
2018-07-17T14:32:40.623Z,36.29
2018-07-17T14:35:11.177Z,35.08
2018-07-17T14:37:41.482Z,33.89
2018-07-17T14:40:12.290Z,33.70
2018-07-17T14:42:42.582Z,34.99
2018-07-17T14:45:12.734Z,35.37
2018-07-17T14:47:43.301Z,37.04
2018-07-17T14:50:14.297Z,36.56
2018-07-17T14:52:44.881Z,36.38
2018-07-17T14:55:15.870Z,37.86
2018-07-17T14:57:46.204Z,39.08
2018-07-17T15:00:16.832Z,38.03
2018-07-17T15:02:47.273Z,38.73
2018-07-17T15:05:17.966Z,38.27
2018-07-17T15:07:49.087Z,36.34
2018-07-17T15:10:19.409Z,36.06
2018-07-17T15:12:51.424Z,36.88
2018-07-17T15:15:21.895Z,35.68
2018-07-17T15:17:52.185Z,36.45
2018-07-17T15:20:22.545Z,36.60
2018-07-17T15:22:53.498Z,37.47
2018-07-17T15:25:24.394Z,38.72
2018-07-17T15:27:55.185Z,38.86
2018-07-17T15:30:25.896Z,40.80
2018-07-17T15:32:56.505Z,42.10
2018-07-17T15:35:27.178Z,41.49
2018-07-17T15:37:57.534Z,43.32
2018-07-17T15:40:27.977Z,44.31
2018-07-17T15:42:58.349Z,44.36
2018-07-17T15:45:29.014Z,43.43
2018-07-17T15:47:59.253Z,42.41
2018-07-17T15:50:30.244Z,43.23
2018-07-17T15:53:01.114Z,42.11
2018-07-17T15:55:31.604Z,42.26
2018-07-17T15:58:01.906Z,42.34
2018-07-17T16:00:32.477Z,41.89
2018-07-17T16:03:03.108Z,42.15
2018-07-17T16:05:33.986Z,44.52
2018-07-17T16:08:04.753Z,45.71
2018-07-17T16:10:34.804Z,45.34
2018-07-17T16:13:05.072Z,46.01
2018-07-17T16:15:35.949Z,45.11
2018-07-17T16:18:06.766Z,43.81
2018-07-17T16:20:37.457Z,42.75
2018-07-17T16:23:08.365Z,39.28
2018-07-17T16:25:39.464Z,40.09
2018-07-17T16:28:10.328Z,44.26
2018-07-17T16:30:40.693Z,43.22
2018-07-17T16:33:11.019Z,43.43
2018-07-17T16:35:41.256Z,43.61
2018-07-17T16:38:11.786Z,44.16
2018-07-17T16:40:42.027Z,43.48
2018-07-17T16:43:12.300Z,44.09
2018-07-17T16:45:42.548Z,45.02
2018-07-17T16:48:13.092Z,48.49
2018-07-17T16:50:43.467Z,45.81
2018-07-17T16:53:13.757Z,44.50
2018-07-17T16:55:44.152Z,45.22
2018-07-17T16:58:14.550Z,44.16
2018-07-17T17:00:44.842Z,48.83
2018-07-17T17:03:15.130Z,44.98
2018-07-17T17:05:45.817Z,45.31
2018-07-17T17:08:16.074Z,47.03
2018-07-17T17:10:46.405Z,45.84
2018-07-17T17:13:16.617Z,45.19
2018-07-17T17:15:47.066Z,47.13
2018-07-17T17:18:17.400Z,47.12
2018-07-17T17:20:47.751Z,46.22
2018-07-17T17:23:18.049Z,46.81
2018-07-17T17:25:48.618Z,47.16
2018-07-17T17:28:18.872Z,48.28
2018-07-17T17:30:49.215Z,50.84
2018-07-17T17:33:19.580Z,50.54
2018-07-17T17:35:50.993Z,52.36
2018-07-17T17:38:21.339Z,53.96
2018-07-17T17:40:51.816Z,54.08
2018-07-17T17:43:22.174Z,55.43
2018-07-17T17:45:52.613Z,55.13
2018-07-17T17:48:22.916Z,54.96
2018-07-17T17:50:53.328Z,54.70
2018-07-17T17:53:23.557Z,53.40
2018-07-17T17:55:57.163Z,53.61
2018-07-17T17:58:27.513Z,54.46
2018-07-17T18:00:57.909Z,54.82
2018-07-17T18:03:28.168Z,55.72
2018-07-17T18:05:58.577Z,56.44
2018-07-17T18:08:28.884Z,56.72
2018-07-17T18:10:59.133Z,57.02
2018-07-17T18:13:29.666Z,57.34
2018-07-17T18:15:59.953Z,57.63
2018-07-17T18:18:30.379Z,57.67
2018-07-17T18:21:00.677Z,57.90
2018-07-17T18:23:30.916Z,57.84
2018-07-17T18:26:01.642Z,57.38
2018-07-17T18:28:31.932Z,56.31
2018-07-17T18:31:02.417Z,56.48
2018-07-17T18:33:32.737Z,56.68
2018-07-17T18:36:04.341Z,56.38
2018-07-17T18:38:34.661Z,56.42
2018-07-17T18:41:04.956Z,56.54
2018-07-17T18:43:35.497Z,56.55
2018-07-17T18:46:06.129Z,55.99
2018-07-17T18:48:36.510Z,56.67
2018-07-17T18:51:06.801Z,55.97
2018-07-17T18:53:37.206Z,54.95
2018-07-17T18:56:07.819Z,55.16
2018-07-17T18:58:39.806Z,55.70
2018-07-17T19:01:10.075Z,55.28
2018-07-17T19:03:40.773Z,56.47
2018-07-17T19:06:12.839Z,56.74
2018-07-17T19:08:43.165Z,57.25
2018-07-17T19:11:13.567Z,56.81
2018-07-17T19:13:44.072Z,56.91
2018-07-17T19:16:14.349Z,57.50
2018-07-17T19:18:45.185Z,57.40
2018-07-17T19:21:15.604Z,57.95
2018-07-17T19:23:46.185Z,57.97
2018-07-17T19:26:16.482Z,58.09
2018-07-17T19:28:47.073Z,57.72
2018-07-17T19:31:17.381Z,57.95
2018-07-17T19:33:48.080Z,57.72
2018-07-17T19:36:19.157Z,57.13
2018-07-17T19:38:49.637Z,56.40
2018-07-17T19:41:19.911Z,56.48
2018-07-17T19:43:50.929Z,57.10
2018-07-17T19:46:21.249Z,57.64
2018-07-17T19:48:51.751Z,57.06
2018-07-17T19:51:22.105Z,57.50
2018-07-17T19:53:52.949Z,57.99
2018-07-17T19:56:23.224Z,59.56
2018-07-17T19:58:53.526Z,58.70
2018-07-17T20:01:23.781Z,57.92
2018-07-17T20:03:54.236Z,57.06
2018-07-17T20:06:24.818Z,57.36
2018-07-17T20:08:55.673Z,57.58
2018-07-17T20:11:26.397Z,57.18
2018-07-17T20:13:57.500Z,56.64
2018-07-17T20:16:27.866Z,56.56
2018-07-17T20:18:58.406Z,56.48
2018-07-17T20:21:28.733Z,56.93
2018-07-17T20:23:58.794Z,56.20
2018-07-17T20:26:29.344Z,56.90
2018-07-17T20:29:00.185Z,56.50
2018-07-17T20:31:30.846Z,57.78
2018-07-17T20:34:01.539Z,57.58
2018-07-17T20:36:32.232Z,58.81
2018-07-17T20:39:02.916Z,58.22
2018-07-17T20:41:33.400Z,58.40
2018-07-17T20:44:04.301Z,57.73
2018-07-17T20:46:35.053Z,57.80
2018-07-17T20:49:05.853Z,57.58
2018-07-17T20:51:36.570Z,58.41
2018-07-17T20:54:07.648Z,59.42
2018-07-17T20:56:38.172Z,58.31
2018-07-17T20:59:08.969Z,57.90
2018-07-17T21:01:39.566Z,58.59
2018-07-17T21:04:10.269Z,61.06
2018-07-17T21:06:40.901Z,60.09
2018-07-17T21:09:12.625Z,60.46
2018-07-17T21:11:43.114Z,60.68
2018-07-17T21:14:14.063Z,61.74
2018-07-17T21:16:44.316Z,61.12
2018-07-17T21:19:14.998Z,60.47
2018-07-17T21:21:46.026Z,60.28
2018-07-17T21:24:16.338Z,59.08
2018-07-17T21:26:47.161Z,57.69
2018-07-17T21:29:17.866Z,57.52
2018-07-17T21:31:48.889Z,59.50
2018-07-17T21:34:19.536Z,60.14
2018-07-17T21:36:50.169Z,59.51
2018-07-17T21:39:20.953Z,59.95
2018-07-17T21:41:52.026Z,59.37
2018-07-17T21:44:22.725Z,58.71
2018-07-17T21:46:53.461Z,59.55
2018-07-17T21:49:24.154Z,59.21
2018-07-17T21:51:54.636Z,59.04
2018-07-17T21:54:25.409Z,57.72
2018-07-17T21:56:56.201Z,60.12
2018-07-17T21:59:26.925Z,58.83
2018-07-17T22:01:57.593Z,58.03
2018-07-17T22:04:27.885Z,57.71
2018-07-17T22:06:58.694Z,58.02
2018-07-17T22:09:29.009Z,56.62
2018-07-17T22:11:59.341Z,57.00
2018-07-17T22:14:29.601Z,56.40
2018-07-17T22:16:59.905Z,56.50
2018-07-17T22:19:30.117Z,55.05
2018-07-17T22:22:00.453Z,55.29
2018-07-17T22:24:30.754Z,53.83
2018-07-17T22:27:01.214Z,55.15
2018-07-17T22:29:31.467Z,55.58
2018-07-17T22:32:01.757Z,54.39
2018-07-17T22:34:31.657Z,54.65
2018-07-17T22:37:01.927Z,53.56
2018-07-17T22:39:32.699Z,52.59
2018-07-17T22:42:02.990Z,52.07
2018-07-17T22:44:33.540Z,53.13
2018-07-17T22:47:04.373Z,52.83
2018-07-17T22:49:36.752Z,53.08
2018-07-17T22:52:07.413Z,53.29
2018-07-17T22:54:38.395Z,53.42
2018-07-17T22:57:08.681Z,53.80
2018-07-17T22:59:39.385Z,54.29
2018-07-17T23:02:10.211Z,56.22
2018-07-17T23:04:40.970Z,57.04
2018-07-17T23:07:11.010Z,58.32
2018-07-17T23:09:41.657Z,56.99
2018-07-17T23:12:12.270Z,56.07
2018-07-17T23:14:42.906Z,56.44
2018-07-17T23:17:13.520Z,56.89
2018-07-17T23:19:44.345Z,56.92
2018-07-17T23:22:18.385Z,58.09
2018-07-17T23:24:49.341Z,58.57
2018-07-17T23:27:19.982Z,58.62
2018-07-17T23:29:50.661Z,60.45
2018-07-17T23:32:21.412Z,60.90
2018-07-17T23:34:52.250Z,60.89
2018-07-17T23:37:22.913Z,60.56
2018-07-17T23:39:54.608Z,61.13
2018-07-17T23:42:25.374Z,61.61
2018-07-17T23:44:56.174Z,61.44
2018-07-17T23:47:26.781Z,62.57
2018-07-17T23:49:57.610Z,62.37
2018-07-17T23:52:28.339Z,62.30
2018-07-17T23:54:59.256Z,61.66
2018-07-17T23:57:29.910Z,60.81
